createdAt,value
2018-12-30T00:04:19.432Z,2.03
2018-12-30T00:09:23.500Z,2.17
2018-12-30T00:14:27.356Z,3.17
2018-12-30T00:19:31.280Z,3.30
2018-12-30T00:24:35.070Z,2.40
2018-12-30T00:29:38.832Z,3.03
2018-12-30T00:34:42.747Z,3.17
2018-12-30T00:39:46.500Z,3.37
2018-12-30T00:44:50.262Z,3.20
2018-12-30T00:49:54.014Z,3.90
2018-12-30T00:54:57.833Z,3.73
2018-12-30T01:00:01.967Z,4.37
2018-12-30T01:05:06.496Z,4.10
2018-12-30T01:10:10.227Z,3.77
2018-12-30T01:15:14.079Z,3.67
2018-12-30T01:20:17.812Z,4.08
2018-12-30T01:25:21.638Z,3.40
2018-12-30T01:30:25.366Z,3.97
2018-12-30T01:35:29.130Z,3.20
2018-12-30T01:40:32.971Z,3.77
2018-12-30T01:45:36.720Z,4.33
2018-12-30T01:50:40.592Z,3.80
2018-12-30T01:55:44.738Z,4.43
2018-12-30T02:00:48.601Z,3.47
2018-12-30T02:05:52.843Z,4.63
2018-12-30T02:10:56.575Z,4.13
2018-12-30T02:16:00.337Z,3.60
2018-12-30T02:21:04.184Z,3.60
2018-12-30T02:26:07.922Z,3.43
2018-12-30T02:31:11.783Z,3.57
2018-12-30T02:36:15.602Z,3.37
2018-12-30T02:41:19.506Z,3.50
2018-12-30T02:46:23.267Z,3.37
2018-12-30T02:51:27.136Z,3.20
2018-12-30T02:56:30.970Z,2.73
2018-12-30T03:01:34.731Z,2.40
2018-12-30T03:06:38.513Z,2.03
2018-12-30T03:11:42.449Z,2.50
2018-12-30T03:16:46.184Z,2.23
2018-12-30T03:21:50.106Z,2.20
2018-12-30T03:26:53.853Z,1.77
2018-12-30T03:31:57.604Z,1.20
2018-12-30T03:37:01.371Z,1.20
2018-12-30T03:42:05.265Z,1.10
2018-12-30T03:47:09.170Z,0.80
2018-12-30T03:52:13.150Z,0.80
2018-12-30T03:57:16.975Z,0.57
2018-12-30T04:02:21.029Z,0.50
2018-12-30T04:07:24.931Z,0.40
2018-12-30T04:12:28.923Z,0.40
2018-12-30T04:17:33.022Z,0.50
2018-12-30T04:22:36.998Z,0.33
2018-12-30T04:27:40.961Z,0.40
2018-12-30T04:32:45.040Z,0.30
2018-12-30T04:37:48.818Z,0.40
2018-12-30T04:42:52.979Z,0.80
2018-12-30T04:47:56.767Z,0.60
2018-12-30T04:53:00.789Z,0.40
2018-12-30T04:58:04.773Z,0.83
2018-12-30T05:03:08.536Z,0.67
2018-12-30T05:08:12.507Z,1.20
2018-12-30T05:13:16.389Z,0.80
2018-12-30T05:18:20.281Z,0.70
2018-12-30T05:23:24.523Z,0.50
2018-12-30T05:28:28.417Z,0.87
2018-12-30T05:33:32.478Z,0.90
2018-12-30T05:38:36.398Z,0.87
2018-12-30T05:43:40.357Z,0.80
2018-12-30T05:48:44.452Z,0.93
2018-12-30T05:53:48.457Z,1.10
2018-12-30T05:58:52.395Z,0.83
2018-12-30T06:03:56.309Z,0.80
2018-12-30T06:09:00.376Z,1.13
2018-12-30T06:14:04.213Z,1.10
2018-12-30T06:19:08.165Z,1.10
2018-12-30T06:24:12.236Z,1.37
2018-12-30T06:29:16.097Z,2.23
2018-12-30T06:34:20.074Z,1.60
2018-12-30T06:39:24.051Z,1.40
2018-12-30T06:44:28.086Z,1.60
2018-12-30T06:49:32.214Z,1.63
2018-12-30T06:54:36.168Z,0.70
2018-12-30T06:59:40.356Z,1.23
2018-12-30T07:04:44.323Z,1.27
2018-12-30T07:09:48.234Z,1.33
2018-12-30T07:14:52.373Z,1.13
2018-12-30T07:19:56.383Z,1.13
2018-12-30T07:25:00.243Z,1.20
2018-12-30T07:30:04.400Z,0.80
2018-12-30T07:35:08.212Z,1.20
2018-12-30T07:40:12.026Z,1.10
2018-12-30T07:45:15.955Z,1.03
2018-12-30T07:50:19.829Z,1.17
2018-12-30T07:55:23.966Z,1.35
2018-12-30T08:00:28.053Z,1.83
2018-12-30T08:05:31.957Z,1.30
2018-12-30T08:10:35.708Z,2.37
2018-12-30T08:15:39.469Z,2.23
2018-12-30T08:20:43.337Z,3.00
2018-12-30T08:25:47.115Z,2.33
2018-12-30T08:30:50.861Z,1.93
2018-12-30T08:35:54.729Z,1.97
2018-12-30T08:40:58.504Z,1.80
2018-12-30T08:46:02.322Z,1.70
2018-12-30T08:51:06.146Z,1.63
2018-12-30T08:56:09.912Z,1.90
2018-12-30T09:01:13.874Z,2.13
2018-12-30T09:06:17.797Z,1.37
2018-12-30T09:11:21.649Z,1.90
2018-12-30T09:16:25.383Z,1.77
2018-12-30T09:21:29.124Z,1.43
2018-12-30T09:26:32.858Z,1.30
2018-12-30T09:31:36.611Z,1.70
2018-12-30T09:36:40.354Z,1.40
2018-12-30T09:41:44.168Z,1.73
2018-12-30T09:46:47.915Z,1.27
2018-12-30T09:51:51.681Z,1.13
2018-12-30T09:56:55.443Z,1.63
2018-12-30T10:01:59.297Z,1.30
2018-12-30T10:07:03.035Z,1.80
2018-12-30T10:12:06.778Z,1.03
2018-12-30T10:17:10.549Z,1.67
2018-12-30T10:22:14.398Z,1.50
2018-12-30T10:27:18.225Z,1.17
2018-12-30T10:32:22.036Z,1.40
2018-12-30T10:37:25.895Z,1.47
2018-12-30T10:42:29.681Z,1.47
2018-12-30T10:47:33.548Z,0.93
2018-12-30T10:52:37.416Z,1.27
2018-12-30T10:57:41.180Z,1.23
2018-12-30T11:02:44.952Z,1.00
2018-12-30T11:07:48.710Z,1.00
2018-12-30T11:12:52.680Z,1.30
2018-12-30T11:17:56.497Z,1.20
2018-12-30T11:23:00.327Z,1.03
2018-12-30T11:28:04.255Z,1.50
2018-12-30T11:33:08.038Z,0.90
2018-12-30T11:38:12.039Z,0.90
2018-12-30T11:43:15.960Z,0.77
2018-12-30T11:48:19.746Z,1.10
2018-12-30T11:53:23.531Z,0.80
2018-12-30T11:58:27.585Z,0.93
2018-12-30T12:03:31.458Z,1.10
2018-12-30T12:08:35.339Z,1.30
2018-12-30T12:13:39.201Z,1.00
2018-12-30T12:18:42.948Z,1.23
2018-12-30T12:23:46.724Z,1.27
2018-12-30T12:28:50.809Z,1.20
2018-12-30T12:33:54.640Z,1.10
2018-12-30T12:38:58.383Z,1.00
2018-12-30T12:44:02.218Z,1.50
2018-12-30T12:49:06.046Z,1.20
2018-12-30T12:54:09.829Z,0.70
2018-12-30T12:59:13.609Z,1.47
2018-12-30T13:04:17.520Z,1.73
2018-12-30T13:09:21.397Z,1.00
2018-12-30T13:14:25.223Z,1.40
2018-12-30T13:19:29.007Z,1.17
2018-12-30T13:24:39.677Z,0.87
2018-12-30T13:29:38.420Z,0.90
2018-12-30T13:34:42.336Z,1.03
2018-12-30T13:39:46.148Z,1.07
2018-12-30T13:44:50.043Z,1.00
2018-12-30T13:49:53.898Z,0.97
2018-12-30T13:54:57.710Z,1.10
2018-12-30T14:00:02.516Z,1.70
2018-12-30T14:05:06.470Z,1.13
2018-12-30T14:10:10.388Z,1.20
2018-12-30T14:15:14.987Z,1.30
2018-12-30T14:20:18.708Z,1.40
2018-12-30T14:25:22.521Z,1.53
2018-12-30T14:30:26.267Z,1.10
2018-12-30T14:35:30.094Z,1.13
2018-12-30T14:40:33.991Z,1.10
2018-12-30T14:45:37.715Z,1.20
2018-12-30T14:50:41.598Z,1.27
2018-12-30T14:55:45.341Z,1.07
2018-12-30T15:00:49.270Z,0.93
2018-12-30T15:05:54.788Z,1.30
2018-12-30T15:10:58.656Z,1.17
2018-12-30T15:16:02.383Z,1.10
2018-12-30T15:21:06.329Z,0.97
2018-12-30T15:26:10.060Z,1.30
2018-12-30T15:31:13.815Z,1.67
2018-12-30T15:36:17.646Z,1.30
2018-12-30T15:41:21.401Z,1.30
2018-12-30T15:46:25.141Z,1.23
2018-12-30T15:51:28.948Z,1.33
2018-12-30T15:56:32.700Z,1.10
2018-12-30T16:01:36.470Z,1.30
2018-12-30T16:06:40.247Z,1.50
2018-12-30T16:11:44.084Z,1.40
2018-12-30T16:16:47.950Z,1.27
2018-12-30T16:21:51.720Z,1.77
2018-12-30T16:26:55.475Z,1.30
2018-12-30T16:31:59.214Z,1.30
2018-12-30T16:37:03.017Z,1.53
2018-12-30T16:42:06.745Z,1.33
2018-12-30T16:47:10.587Z,1.53
2018-12-30T16:52:14.330Z,1.57
2018-12-30T16:57:18.178Z,1.67
2018-12-30T17:02:22.014Z,1.10
2018-12-30T17:07:25.800Z,1.30
2018-12-30T17:12:29.548Z,1.50
2018-12-30T17:17:33.337Z,1.10
2018-12-30T17:22:37.075Z,1.12
2018-12-30T17:27:40.843Z,1.10
2018-12-30T17:32:44.588Z,1.43
2018-12-30T17:37:48.385Z,1.60
2018-12-30T17:42:52.175Z,1.67
2018-12-30T17:47:55.938Z,1.83
2018-12-30T17:52:59.775Z,1.13
2018-12-30T17:58:03.518Z,1.50
2018-12-30T18:03:07.271Z,1.60
2018-12-30T18:08:11.025Z,1.70
2018-12-30T18:13:14.791Z,1.33
2018-12-30T18:18:18.606Z,1.40
2018-12-30T18:23:22.371Z,1.60
2018-12-30T18:28:26.258Z,1.60
2018-12-30T18:33:30.124Z,1.83
2018-12-30T18:38:33.922Z,1.80
2018-12-30T18:43:37.655Z,1.80
2018-12-30T18:48:41.487Z,2.07
2018-12-30T18:53:45.304Z,1.60
2018-12-30T18:58:49.141Z,1.80
2018-12-30T19:03:53.019Z,1.83
2018-12-30T19:08:56.801Z,2.17
2018-12-30T19:14:00.590Z,1.63
2018-12-30T19:19:04.485Z,1.83
2018-12-30T19:24:08.316Z,1.37
2018-12-30T19:29:12.128Z,1.63
2018-12-30T19:34:15.977Z,1.50
2018-12-30T19:39:19.877Z,1.73
2018-12-30T19:44:23.631Z,1.70
2018-12-30T19:49:27.464Z,1.70
2018-12-30T19:54:31.223Z,1.97
2018-12-30T19:59:35.109Z,1.40
2018-12-30T20:04:40.836Z,1.80
2018-12-30T20:09:44.601Z,1.47
2018-12-30T20:14:48.387Z,1.70
2018-12-30T20:19:52.175Z,2.17
2018-12-30T20:24:56.020Z,1.80
2018-12-30T20:30:03.172Z,2.20
2018-12-30T20:35:07.205Z,1.70
2018-12-30T20:40:11.136Z,2.50
2018-12-30T20:45:14.905Z,2.20
2018-12-30T20:50:18.674Z,2.10
2018-12-30T20:55:22.434Z,2.43
2018-12-30T21:00:26.280Z,2.40
2018-12-30T21:05:30.067Z,1.97
2018-12-30T21:10:33.851Z,2.10
2018-12-30T21:15:37.666Z,2.10
2018-12-30T21:20:41.462Z,1.90
2018-12-30T21:25:45.227Z,1.80
2018-12-30T21:30:48.962Z,1.90
2018-12-30T21:35:52.741Z,1.63
2018-12-30T21:40:59.615Z,2.20
2018-12-30T21:46:03.354Z,1.77
2018-12-30T21:51:07.177Z,1.97
2018-12-30T21:56:10.964Z,2.00
2018-12-30T22:01:14.904Z,2.00
2018-12-30T22:06:18.738Z,2.27
2018-12-30T22:11:22.642Z,2.33
2018-12-30T22:16:26.486Z,2.87
2018-12-30T22:21:30.364Z,1.70
2018-12-30T22:26:34.250Z,1.37
2018-12-30T22:31:38.249Z,1.90
2018-12-30T22:36:42.073Z,1.50
2018-12-30T22:41:45.932Z,1.43
2018-12-30T22:46:49.826Z,1.20
2018-12-30T22:51:53.683Z,1.47
2018-12-30T22:56:57.608Z,1.70
2018-12-30T23:02:01.712Z,1.60
2018-12-30T23:07:05.644Z,1.40
2018-12-30T23:12:09.507Z,1.50
2018-12-30T23:17:13.389Z,1.77
2018-12-30T23:22:17.191Z,2.23
2018-12-30T23:27:21.059Z,2.20
2018-12-30T23:32:24.916Z,3.23
2018-12-30T23:37:28.747Z,3.27
2018-12-30T23:42:32.498Z,3.40
2018-12-30T23:47:36.268Z,3.30
2018-12-30T23:52:40.090Z,3.23
2018-12-30T23:57:43.833Z,3.10
